Time;durP1;ratioP1;P1;durP2;ratioP2;P2;SDS_P1;SDS_P2;PMS_P1;PMS_P2;Temp;Humidity;BMP_temperature;BMP_pressure;BME280_temperature;BME280_humidity;BME280_pressure;Samples;Min_cycle;Max_cycle;Signal;HPM_P1;HPM_P2
2021/09/11 00:00:17;;;;;;;0.40;0.20;;;17.10;99.90;;;;;;5094810;28;20380;-72
2021/09/11 00:02:47;;;;;;;0.40;0.20;;;17.10;99.90;;;;;;5111718;28;20380;-71
2021/09/11 00:05:15;;;;;;;0.40;0.30;;;17.10;99.90;;;;;;5090498;28;20390;-71
2021/09/11 00:07:41;;;;;;;0.40;0.20;;;17.20;99.90;;;;;;5097429;28;20517;-72
2021/09/11 00:10:08;;;;;;;0.40;0.20;;;17.10;99.90;;;;;;5110841;28;20384;-72
2021/09/11 00:12:36;;;;;;;0.40;0.20;;;17.20;99.90;;;;;;5111510;28;20813;-72
2021/09/11 00:15:03;;;;;;;0.40;0.40;;;17.20;99.90;;;;;;5111058;28;20517;-73
2021/09/11 00:17:29;;;;;;;0.40;0.20;;;17.20;99.90;;;;;;5111269;28;20400;-72
2021/09/11 00:19:54;;;;;;;0.40;0.20;;;17.20;99.90;;;;;;5111231;28;20854;-72
2021/09/11 00:22:20;;;;;;;0.40;0.30;;;17.20;99.90;;;;;;5110129;28;20388;-72
2021/09/11 00:24:46;;;;;;;0.40;0.20;;;17.20;99.90;;;;;;5110958;28;20372;-72
2021/09/11 00:27:11;;;;;;;0.40;0.20;;;17.10;99.90;;;;;;5110606;28;20669;-72
2021/09/11 00:29:37;;;;;;;0.40;0.30;;;17.20;99.90;;;;;;5111490;28;20924;-71
2021/09/11 00:32:04;;;;;;;0.40;0.20;;;17.20;99.90;;;;;;5110390;28;20517;-73
2021/09/11 00:34:29;;;;;;;0.40;0.20;;;17.10;99.90;;;;;;5111394;28;20871;-72
2021/09/11 00:36:55;;;;;;;0.40;0.30;;;17.10;99.90;;;;;;5110867;28;20392;-72
2021/09/11 00:39:23;;;;;;;0.40;0.20;;;17.10;99.90;;;;;;5109952;28;20483;-71
2021/09/11 00:41:49;;;;;;;0.40;0.20;;;17.00;99.90;;;;;;5110927;28;20465;-71
2021/09/11 00:44:15;;;;;;;0.40;0.30;;;17.00;99.90;;;;;;5110211;28;20380;-71
2021/09/11 00:46:40;;;;;;;0.40;0.30;;;17.00;99.90;;;;;;5111390;28;20430;-71
2021/09/11 00:49:06;;;;;;;0.40;0.20;;;17.00;99.90;;;;;;5110171;28;20393;-71
2021/09/11 00:51:32;;;;;;;0.40;0.20;;;17.10;99.90;;;;;;5111056;28;20414;-71
2021/09/11 00:53:59;;;;;;;0.50;0.40;;;17.10;99.90;;;;;;5110333;28;20385;-71
2021/09/11 00:56:25;;;;;;;0.40;0.20;;;17.10;99.90;;;;;;5110037;28;22054;-71
2021/09/11 00:58:50;;;;;;;0.40;0.30;;;17.10;99.90;;;;;;5110286;28;20423;-71
2021/09/11 01:01:17;;;;;;;0.40;0.30;;;17.10;99.90;;;;;;5109856;28;20463;-71
2021/09/11 01:03:42;;;;;;;0.40;0.40;;;17.10;99.90;;;;;;5111052;28;20372;-71
2021/09/11 01:06:10;;;;;;;0.40;0.20;;;17.10;99.90;;;;;;5110077;28;20379;-71
2021/09/11 01:08:38;;;;;;;0.40;0.28;;;17.10;99.90;;;;;;5110628;28;20387;-71
2021/09/11 01:11:04;;;;;;;0.40;0.20;;;17.10;99.90;;;;;;5109683;28;20404;-72
2021/09/11 01:13:32;;;;;;;0.40;0.30;;;17.10;99.90;;;;;;5110466;28;20443;-71
2021/09/11 01:15:58;;;;;;;0.40;0.20;;;17.10;99.90;;;;;;5110701;28;20408;-71
2021/09/11 01:18:25;;;;;;;0.40;0.30;;;17.10;99.90;;;;;;5109198;28;20411;-71
2021/09/11 01:20:50;;;;;;;0.40;0.20;;;17.00;99.90;;;;;;5110656;28;20433;-71
2021/09/11 01:23:16;;;;;;;0.40;0.30;;;17.10;99.90;;;;;;5109814;28;20390;-71
2021/09/11 01:25:42;;;;;;;0.40;0.30;;;17.10;99.90;;;;;;5110396;28;20372;-71
2021/09/11 01:28:07;;;;;;;0.40;0.20;;;17.10;99.90;;;;;;5109255;28;20832;-72
2021/09/11 01:30:33;;;;;;;0.40;0.20;;;17.00;99.90;;;;;;5109890;28;20434;-71
2021/09/11 01:32:58;;;;;;;0.40;0.40;;;17.10;99.90;;;;;;5110602;28;20434;-71
2021/09/11 01:35:24;;;;;;;0.40;0.30;;;17.00;99.90;;;;;;5109863;28;20400;-71
2021/09/11 01:37:50;;;;;;;0.40;0.30;;;17.00;99.90;;;;;;5110399;28;20491;-71
2021/09/11 01:40:16;;;;;;;0.40;0.30;;;17.10;99.90;;;;;;5109707;28;20372;-71
2021/09/11 01:42:42;;;;;;;0.40;0.20;;;17.10;99.90;;;;;;5110422;28;20488;-71
2021/09/11 01:45:14;;;;;;;0.40;0.20;;;17.10;99.90;;;;;;5108038;28;20387;-72
2021/09/11 01:47:41;;;;;;;0.40;0.30;;;17.10;99.90;;;;;;5110361;28;20461;-71
2021/09/11 01:50:09;;;;;;;0.40;0.20;;;17.20;99.90;;;;;;5109712;28;20384;-71
2021/09/11 01:52:34;;;;;;;0.40;0.20;;;17.10;99.90;;;;;;5110442;28;20377;-71
2021/09/11 01:55:00;;;;;;;0.40;0.20;;;17.10;99.90;;;;;;5109949;28;20381;-71
2021/09/11 01:57:27;;;;;;;0.40;0.30;;;17.10;99.90;;;;;;5109349;28;20392;-71
2021/09/11 01:59:52;;;;;;;0.40;0.30;;;17.10;99.90;;;;;;5097918;28;20449;-71
2021/09/11 02:02:18;;;;;;;0.40;0.27;;;17.10;99.90;;;;;;5092107;28;20390;-71
2021/09/11 02:04:43;;;;;;;0.40;0.20;;;17.20;99.90;;;;;;5100206;28;20841;-71
2021/09/11 02:07:09;;;;;;;0.40;0.20;;;17.00;99.90;;;;;;5109270;28;20472;-72
2021/09/11 02:09:36;;;;;;;0.40;0.20;;;17.10;99.90;;;;;;5110280;28;20943;-71
2021/09/11 02:12:03;;;;;;;0.40;0.20;;;17.10;99.90;;;;;;5110298;28;20373;-71
2021/09/11 02:14:29;;;;;;;0.40;0.30;;;17.20;99.90;;;;;;5109228;28;20372;-71
2021/09/11 02:16:54;;;;;;;0.40;0.20;;;17.10;99.90;;;;;;5110190;28;20387;-71
2021/09/11 02:19:20;;;;;;;0.40;0.20;;;17.10;99.90;;;;;;5108618;28;20404;-72
2021/09/11 02:21:46;;;;;;;0.40;0.30;;;17.00;99.90;;;;;;5111093;28;20380;-71
2021/09/11 02:24:11;;;;;;;0.40;0.20;;;17.10;99.90;;;;;;5113137;28;20376;-72
2021/09/11 02:26:37;;;;;;;0.40;0.20;;;17.00;99.90;;;;;;5113556;28;20388;-71
2021/09/11 02:29:04;;;;;;;0.40;0.30;;;16.90;99.90;;;;;;5113256;28;20728;-71
2021/09/11 02:31:30;;;;;;;0.40;0.28;;;16.90;99.90;;;;;;5111154;28;21016;-71
2021/09/11 02:33:55;;;;;;;0.40;0.30;;;17.00;99.90;;;;;;5113571;28;20373;-71
2021/09/11 02:36:21;;;;;;;0.40;0.20;;;17.00;99.90;;;;;;5111328;28;20385;-71
2021/09/11 02:38:47;;;;;;;0.40;0.20;;;16.90;99.90;;;;;;5112832;28;20404;-71
2021/09/11 02:41:13;;;;;;;0.40;0.20;;;16.90;99.90;;;;;;5112681;28;20742;-72
2021/09/11 02:43:39;;;;;;;0.40;0.20;;;16.80;99.90;;;;;;5113430;28;20429;-71
2021/09/11 02:46:05;;;;;;;0.40;0.20;;;16.90;99.90;;;;;;5112795;28;20396;-71
2021/09/11 02:48:31;;;;;;;0.40;0.20;;;16.90;99.90;;;;;;5112530;28;20455;-71
2021/09/11 02:50:57;;;;;;;0.40;0.20;;;16.90;99.90;;;;;;5113272;28;20844;-71
2021/09/11 02:53:23;;;;;;;0.40;0.30;;;16.80;99.90;;;;;;5110975;28;20429;-72
2021/09/11 02:55:50;;;;;;;0.40;0.30;;;16.90;99.90;;;;;;5112820;28;20376;-71
2021/09/11 02:58:17;;;;;;;0.40;0.20;;;16.90;99.90;;;;;;5111973;28;20425;-71
2021/09/11 03:00:43;;;;;;;0.40;0.20;;;17.00;99.90;;;;;;5112896;28;20419;-71
2021/09/11 03:03:08;;;;;;;0.40;0.30;;;16.90;99.90;;;;;;5112490;28;20411;-72
2021/09/11 03:05:34;;;;;;;0.40;0.20;;;16.90;99.90;;;;;;5112624;28;20445;-71
2021/09/11 03:08:00;;;;;;;0.40;0.20;;;16.80;99.90;;;;;;5112565;28;20383;-72
2021/09/11 03:10:25;;;;;;;0.40;0.20;;;16.80;99.90;;;;;;5111780;28;20463;-71
2021/09/11 03:12:51;;;;;;;0.40;0.30;;;16.80;99.90;;;;;;5112605;28;20371;-71
2021/09/11 03:15:16;;;;;;;0.40;0.30;;;16.80;99.90;;;;;;5111376;28;20879;-71
2021/09/11 03:17:42;;;;;;;0.40;0.30;;;16.80;99.90;;;;;;5112854;28;20379;-71
2021/09/11 03:20:09;;;;;;;0.40;0.20;;;16.70;99.90;;;;;;5112098;28;20910;-71
2021/09/11 03:22:35;;;;;;;0.40;0.30;;;16.80;99.90;;;;;;5112001;28;20392;-71
2021/09/11 03:25:01;;;;;;;0.40;0.30;;;16.80;99.90;;;;;;5112543;28;20441;-71
2021/09/11 03:27:27;;;;;;;0.40;0.30;;;16.80;99.90;;;;;;5110358;28;20385;-71
2021/09/11 03:29:53;;;;;;;0.40;0.30;;;16.70;99.90;;;;;;5112459;28;20484;-71
2021/09/11 03:32:18;;;;;;;0.40;0.30;;;16.70;99.90;;;;;;5110047;28;20387;-71
2021/09/11 03:34:44;;;;;;;0.40;0.20;;;16.70;99.90;;;;;;5112306;28;20396;-72
2021/09/11 03:37:10;;;;;;;0.40;0.20;;;16.80;99.90;;;;;;5112016;28;20384;-71
2021/09/11 03:39:35;;;;;;;0.40;0.30;;;16.80;99.90;;;;;;5111263;28;20449;-71
2021/09/11 03:42:01;;;;;;;0.40;0.20;;;16.80;99.90;;;;;;5112139;28;20460;-71
2021/09/11 03:44:26;;;;;;;0.40;0.30;;;16.90;99.90;;;;;;5109995;28;20457;-71
2021/09/11 03:46:52;;;;;;;0.40;0.30;;;16.90;99.90;;;;;;5111552;28;20946;-71
2021/09/11 03:49:18;;;;;;;0.40;0.20;;;16.80;99.90;;;;;;5111080;28;20448;-71
2021/09/11 03:51:43;;;;;;;0.40;0.20;;;16.70;99.90;;;;;;5112059;28;20429;-71
2021/09/11 03:54:09;;;;;;;0.40;0.30;;;16.70;99.90;;;;;;5112061;27;20380;-71
2021/09/11 03:56:35;;;;;;;0.40;0.30;;;16.80;99.90;;;;;;5110684;28;20372;-71
2021/09/11 03:59:00;;;;;;;0.40;0.25;;;16.60;99.90;;;;;;5106171;28;20413;-71
2021/09/11 04:01:26;;;;;;;0.40;0.20;;;16.70;99.90;;;;;;5098781;28;20394;-71
2021/09/11 04:03:51;;;;;;;0.40;0.20;;;16.70;99.90;;;;;;5108249;28;20399;-71
2021/09/11 04:06:17;;;;;;;0.40;0.20;;;16.60;99.90;;;;;;5091731;28;20386;-72
2021/09/11 04:08:43;;;;;;;0.40;0.20;;;16.50;99.90;;;;;;5106808;28;20380;-71
2021/09/11 04:11:08;;;;;;;0.40;0.20;;;16.60;99.90;;;;;;5112420;28;20381;-71
2021/09/11 04:13:34;;;;;;;0.50;0.40;;;16.60;99.90;;;;;;5111101;28;20509;-71
2021/09/11 04:16:00;;;;;;;0.40;0.30;;;16.50;99.90;;;;;;5111689;28;20387;-71
2021/09/11 04:18:25;;;;;;;0.40;0.20;;;16.50;99.90;;;;;;5111232;28;20404;-71
2021/09/11 04:20:51;;;;;;;0.40;0.30;;;16.50;99.90;;;;;;5111731;28;20373;-71
2021/09/11 04:23:17;;;;;;;0.40;0.20;;;16.40;99.90;;;;;;5111002;28;20388;-72
2021/09/11 04:25:43;;;;;;;0.40;0.20;;;16.40;99.90;;;;;;5111918;28;20416;-71
2021/09/11 04:28:09;;;;;;;0.40;0.20;;;16.50;99.90;;;;;;5112085;28;20396;-71
2021/09/11 04:30:35;;;;;;;0.40;0.30;;;16.40;99.90;;;;;;5110976;28;20373;-71
2021/09/11 04:33:00;;;;;;;0.40;0.30;;;16.30;99.90;;;;;;5111314;28;20408;-71
2021/09/11 04:35:26;;;;;;;0.40;0.30;;;16.20;99.90;;;;;;5110976;28;20694;-71
2021/09/11 04:37:52;;;;;;;0.40;0.30;;;16.20;99.90;;;;;;5110157;28;20446;-71
2021/09/11 04:40:17;;;;;;;0.40;0.30;;;16.20;99.90;;;;;;5110957;28;20379;-72
2021/09/11 04:42:43;;;;;;;0.40;0.30;;;16.30;99.90;;;;;;5111844;28;20376;-71
2021/09/11 04:45:09;;;;;;;0.40;0.20;;;16.10;99.90;;;;;;5110669;28;20387;-71
2021/09/11 04:47:35;;;;;;;0.40;0.30;;;16.10;99.90;;;;;;5110173;28;21000;-71
2021/09/11 04:50:01;;;;;;;0.40;0.20;;;16.10;99.90;;;;;;5110151;28;20517;-71
2021/09/11 04:52:26;;;;;;;0.40;0.30;;;16.10;99.90;;;;;;5110124;27;20431;-71
2021/09/11 04:54:52;;;;;;;0.50;0.50;;;16.10;99.90;;;;;;5111404;28;20521;-71
2021/09/11 04:57:17;;;;;;;0.40;0.30;;;16.10;99.90;;;;;;5110564;28;20499;-72
2021/09/11 04:59:43;;;;;;;0.40;0.30;;;16.10;99.90;;;;;;5111182;28;20408;-71
2021/09/11 05:02:08;;;;;;;0.40;0.20;;;16.00;99.90;;;;;;5111120;28;20372;-71
2021/09/11 05:04:34;;;;;;;0.40;0.30;;;16.00;99.90;;;;;;5110848;28;20875;-71
2021/09/11 05:07:00;;;;;;;0.40;0.30;;;16.10;99.90;;;;;;5111138;28;20475;-71
2021/09/11 05:09:26;;;;;;;0.40;0.30;;;16.10;99.90;;;;;;5110306;28;20384;-71
2021/09/11 05:11:51;;;;;;;0.40;0.30;;;16.10;99.90;;;;;;5111216;28;20409;-71
2021/09/11 05:14:17;;;;;;;0.40;0.30;;;16.10;99.90;;;;;;5110859;28;20725;-72
2021/09/11 05:16:43;;;;;;;0.40;0.20;;;16.10;99.90;;;;;;5110818;28;20381;-71
2021/09/11 05:19:09;;;;;;;0.40;0.20;;;16.20;99.90;;;;;;5110938;28;20864;-71
2021/09/11 05:21:35;;;;;;;0.40;0.20;;;16.20;99.90;;;;;;5110460;28;20376;-71
2021/09/11 05:24:00;;;;;;;0.40;0.30;;;16.20;99.90;;;;;;5109833;28;20377;-71
2021/09/11 05:26:26;;;;;;;0.40;0.30;;;16.20;99.90;;;;;;5110162;28;20474;-71
2021/09/11 05:28:52;;;;;;;0.40;0.20;;;16.30;99.90;;;;;;5111358;28;20416;-71
2021/09/11 05:31:18;;;;;;;0.40;0.20;;;16.30;99.90;;;;;;5110586;28;20467;-71
2021/09/11 05:33:43;;;;;;;0.40;0.20;;;16.20;99.90;;;;;;5111013;28;20894;-71
2021/09/11 05:36:09;;;;;;;0.40;0.20;;;16.30;99.90;;;;;;5110394;28;20898;-72
2021/09/11 05:38:34;;;;;;;0.40;0.20;;;16.20;99.90;;;;;;5110061;28;20396;-71
2021/09/11 05:41:00;;;;;;;0.40;0.20;;;16.30;99.90;;;;;;5110913;28;20377;-71
2021/09/11 05:43:26;;;;;;;0.40;0.30;;;16.30;99.90;;;;;;5108927;28;20848;-72
2021/09/11 05:45:52;;;;;;;0.40;0.30;;;16.30;99.90;;;;;;5111084;28;20474;-71
2021/09/11 05:48:18;;;;;;;0.40;0.20;;;16.30;99.90;;;;;;5110449;28;20386;-72
2021/09/11 05:50:43;;;;;;;0.40;0.30;;;16.30;99.90;;;;;;5110571;28;20472;-72
2021/09/11 05:53:09;;;;;;;0.40;0.30;;;16.20;99.90;;;;;;5110981;28;20369;-72
2021/09/11 05:55:35;;;;;;;0.40;0.20;;;16.20;99.90;;;;;;5110483;28;20369;-72
2021/09/11 05:58:01;;;;;;;0.40;0.20;;;16.20;99.90;;;;;;5113303;28;20420;-71
2021/09/11 06:00:27;;;;;;;0.40;0.30;;;16.20;99.90;;;;;;5104328;28;20401;-72
2021/09/11 06:02:53;;;;;;;0.40;0.30;;;16.30;99.90;;;;;;5094027;28;20455;-72
2021/09/11 06:05:18;;;;;;;0.40;0.20;;;16.30;99.90;;;;;;5113698;28;20386;-72
2021/09/11 06:07:44;;;;;;;0.40;0.20;;;16.30;99.90;;;;;;5113313;28;20384;-72
2021/09/11 06:10:15;;;;;;;0.40;0.20;;;16.40;99.90;;;;;;5113412;28;20388;-72
2021/09/11 06:12:40;;;;;;;0.40;0.30;;;16.40;99.90;;;;;;5113469;28;20376;-72
2021/09/11 06:15:08;;;;;;;0.40;0.20;;;16.40;99.90;;;;;;5113919;28;20491;-72
2021/09/11 06:17:34;;;;;;;0.40;0.30;;;16.50;99.90;;;;;;5113517;27;20847;-72
2021/09/11 06:20:00;;;;;;;0.40;0.30;;;16.50;99.90;;;;;;5113114;28;20408;-72
2021/09/11 06:22:25;;;;;;;0.40;0.20;;;16.50;99.90;;;;;;5112927;28;20384;-73
2021/09/11 06:24:51;;;;;;;0.40;0.30;;;16.40;99.90;;;;;;5114559;28;20372;-72
2021/09/11 06:27:18;;;;;;;0.40;0.30;;;16.30;99.90;;;;;;5112648;28;20483;-72
2021/09/11 06:29:44;;;;;;;0.40;0.30;;;16.40;99.90;;;;;;5113398;28;20458;-72
2021/09/11 06:32:10;;;;;;;0.40;0.30;;;16.40;99.90;;;;;;5114031;28;20376;-72
2021/09/11 06:34:36;;;;;;;0.40;0.20;;;16.30;99.90;;;;;;5113037;28;20853;-73
2021/09/11 06:37:01;;;;;;;0.40;0.20;;;16.30;99.90;;;;;;5113735;28;20379;-72
2021/09/11 06:39:27;;;;;;;0.40;0.20;;;16.30;99.90;;;;;;5113077;28;20408;-74
2021/09/11 06:41:53;;;;;;;0.40;0.30;;;16.40;99.90;;;;;;5114132;28;20417;-73
2021/09/11 06:44:19;;;;;;;0.40;0.20;;;16.30;99.90;;;;;;5113683;28;20387;-73
2021/09/11 06:46:44;;;;;;;0.40;0.20;;;16.40;99.90;;;;;;5113131;28;20380;-73
2021/09/11 06:49:10;;;;;;;0.40;0.30;;;16.50;99.90;;;;;;5113520;28;20385;-74
2021/09/11 06:51:35;;;;;;;0.40;0.30;;;16.60;99.90;;;;;;5113117;28;20380;-73
2021/09/11 06:54:01;;;;;;;0.40;0.20;;;16.60;99.90;;;;;;5113133;28;20509;-74
2021/09/11 06:56:27;;;;;;;0.40;0.30;;;16.70;99.90;;;;;;5112247;28;20397;-74
2021/09/11 06:58:52;;;;;;;0.40;0.30;;;16.80;99.90;;;;;;5113343;28;20409;-73
2021/09/11 07:01:20;;;;;;;0.40;0.20;;;16.80;99.90;;;;;;5113317;28;20913;-73
2021/09/11 07:03:45;;;;;;;0.40;0.20;;;16.90;99.90;;;;;;5112538;28;21020;-73
2021/09/11 07:06:11;;;;;;;0.40;0.20;;;17.00;99.90;;;;;;5113253;28;20380;-73
2021/09/11 07:08:37;;;;;;;0.40;0.30;;;17.10;99.90;;;;;;5112276;28;20396;-73
2021/09/11 07:11:02;;;;;;;0.40;0.30;;;17.10;99.90;;;;;;5112570;28;20400;-74
2021/09/11 07:13:28;;;;;;;0.40;0.30;;;17.10;99.90;;;;;;5112036;28;20737;-74
2021/09/11 07:15:54;;;;;;;0.40;0.40;;;17.20;99.90;;;;;;5112709;28;20475;-73
2021/09/11 07:18:20;;;;;;;0.40;0.20;;;17.20;99.90;;;;;;5112306;28;20486;-73
2021/09/11 07:20:45;;;;;;;0.40;0.20;;;17.30;99.90;;;;;;5112485;27;21131;-75
2021/09/11 07:23:11;;;;;;;0.40;0.20;;;17.40;99.90;;;;;;5115291;27;20713;-73
2021/09/11 07:25:37;;;;;;;0.40;0.20;;;17.50;99.90;;;;;;5099591;27;20861;-73
2021/09/11 07:28:06;;;;;;;0.40;0.20;;;17.70;99.90;;;;;;5124613;27;20884;-73
2021/09/11 07:30:31;;;;;;;0.40;0.20;;;17.70;99.90;;;;;;5123187;27;20383;-73
2021/09/11 07:32:57;;;;;;;0.40;0.30;;;17.80;99.90;;;;;;5117909;27;20449;-73
2021/09/11 07:35:22;;;;;;;0.40;0.30;;;17.80;99.90;;;;;;5126359;27;20387;-74
2021/09/11 07:37:48;;;;;;;0.40;0.30;;;17.80;99.90;;;;;;5117583;27;20411;-73
2021/09/11 07:40:14;;;;;;;0.40;0.20;;;17.90;99.90;;;;;;5112347;27;20438;-73
2021/09/11 07:42:39;;;;;;;0.40;0.30;;;18.00;99.90;;;;;;5110950;28;20388;-74
2021/09/11 07:45:06;;;;;;;0.40;0.30;;;18.00;99.90;;;;;;5112299;28;20368;-73
2021/09/11 07:47:32;;;;;;;0.40;0.20;;;18.00;99.90;;;;;;5111215;28;20390;-74
2021/09/11 07:49:57;;;;;;;0.40;0.20;;;18.10;99.90;;;;;;5116778;27;20779;-74
2021/09/11 07:52:23;;;;;;;0.40;0.30;;;18.10;99.90;;;;;;5114763;27;20463;-73
2021/09/11 07:54:48;;;;;;;0.40;0.20;;;18.10;99.90;;;;;;5116252;27;20484;-74
2021/09/11 07:57:14;;;;;;;0.40;0.30;;;18.10;99.90;;;;;;5119266;27;20487;-74
2021/09/11 07:59:40;;;;;;;0.40;0.30;;;18.20;99.90;;;;;;5114218;27;20467;-74
2021/09/11 08:02:05;;;;;;;0.40;0.20;;;18.30;99.90;;;;;;5108968;27;20450;-74
2021/09/11 08:04:31;;;;;;;0.40;0.20;;;18.40;99.90;;;;;;5112612;27;20372;-74
2021/09/11 08:06:57;;;;;;;0.40;0.30;;;18.40;99.90;;;;;;5114419;27;20484;-74
2021/09/11 08:09:23;;;;;;;0.40;0.20;;;18.50;99.90;;;;;;5112771;27;20392;-72
2021/09/11 08:11:48;;;;;;;0.40;0.20;;;18.60;99.90;;;;;;5110904;28;20372;-73
2021/09/11 08:14:14;;;;;;;0.40;0.30;;;18.70;99.90;;;;;;5110905;28;20384;-74
2021/09/11 08:16:40;;;;;;;0.40;0.20;;;18.70;99.90;;;;;;5110825;28;20760;-74
2021/09/11 08:19:05;;;;;;;0.40;0.30;;;18.80;99.90;;;;;;5110777;28;20408;-74
2021/09/11 08:21:31;;;;;;;0.40;0.20;;;18.90;99.90;;;;;;5110616;28;20376;-73
2021/09/11 08:23:57;;;;;;;0.40;0.20;;;19.00;99.90;;;;;;5111586;28;20372;-74
2021/09/11 08:26:22;;;;;;;0.40;0.20;;;18.90;99.90;;;;;;5111577;28;20373;-73
2021/09/11 08:28:51;;;;;;;0.40;0.22;;;19.00;99.90;;;;;;5116490;27;20441;-73
2021/09/11 08:31:18;;;;;;;0.40;0.30;;;19.10;99.90;;;;;;5131413;27;20747;-73
2021/09/11 08:33:43;;;;;;;0.40;0.20;;;19.10;99.90;;;;;;5117581;27;20375;-73
2021/09/11 08:36:09;;;;;;;0.40;0.20;;;19.30;99.90;;;;;;5111661;28;20775;-73
2021/09/11 08:38:38;;;;;;;0.40;0.20;;;19.40;99.90;;;;;;5110883;28;20510;-73
2021/09/11 08:41:07;;;;;;;0.40;0.30;;;19.60;99.90;;;;;;5106621;27;20472;-74
2021/09/11 08:43:35;;;;;;;0.40;0.20;;;19.70;99.90;;;;;;5095902;28;20376;-74
2021/09/11 08:46:00;;;;;;;0.40;0.22;;;19.80;99.90;;;;;;5111631;28;20404;-74
2021/09/11 08:48:26;;;;;;;0.40;0.20;;;19.80;99.90;;;;;;5106601;28;20426;-74
2021/09/11 08:50:53;;;;;;;0.40;0.30;;;19.90;99.90;;;;;;5090366;28;20435;-74
2021/09/11 08:53:19;;;;;;;0.40;0.30;;;20.00;99.90;;;;;;5091620;28;20495;-74
2021/09/11 08:55:45;;;;;;;0.40;0.20;;;20.10;99.90;;;;;;5103517;28;20466;-74
2021/09/11 08:58:11;;;;;;;0.40;0.20;;;20.20;99.90;;;;;;5091719;28;20459;-73
2021/09/11 09:00:50;;;;;;;0.40;0.30;;;20.30;99.90;;;;;;5090165;28;20390;-74
2021/09/11 09:03:39;;;;;;;0.40;0.30;;;20.40;99.90;;;;;;5091218;28;20382;-74
2021/09/11 09:06:27;;;;;;;0.40;0.30;;;20.60;99.90;;;;;;5091198;28;20374;-74
2021/09/11 09:09:03;;;;;;;0.40;0.30;;;20.60;99.90;;;;;;5106526;28;21288;-72
2021/09/11 09:11:34;;;;;;;0.40;0.20;;;20.60;99.90;;;;;;5111469;28;20422;-75
2021/09/11 09:14:03;;;;;;;0.40;0.30;;;20.60;99.90;;;;;;5111688;28;20745;-75
2021/09/11 09:16:47;;;;;;;0.40;0.30;;;20.90;99.90;;;;;;5109575;28;20377;-74
2021/09/11 09:19:16;;;;;;;0.90;0.50;;;21.20;99.90;;;;;;5109549;28;20416;-74
2021/09/11 09:21:43;;;;;;;0.40;0.30;;;21.10;99.90;;;;;;5110638;28;20388;-75
2021/09/11 09:24:13;;;;;;;0.40;0.30;;;21.10;99.90;;;;;;5111149;28;20392;-75
2021/09/11 09:26:59;;;;;;;0.40;0.20;;;21.20;99.90;;;;;;5109985;28;20384;-74
2021/09/11 09:29:25;;;;;;;0.40;0.20;;;21.20;99.90;;;;;;5111076;28;20399;-74
2021/09/11 09:31:56;;;;;;;0.40;0.20;;;21.20;99.90;;;;;;5113419;28;20376;-74
2021/09/11 09:34:37;;;;;;;0.40;0.20;;;21.30;99.90;;;;;;5115487;28;20380;-73
2021/09/11 09:37:06;;;;;;;0.40;0.30;;;21.40;99.90;;;;;;5114848;28;20381;-72
2021/09/11 09:39:48;;;;;;;0.40;0.30;;;21.60;99.90;;;;;;5112057;28;20411;-76
2021/09/11 09:42:16;;;;;;;0.40;0.30;;;21.70;99.90;;;;;;5115361;28;20383;-74
2021/09/11 09:44:54;;;;;;;0.40;0.20;;;21.80;99.90;;;;;;5112642;28;20380;-75
2021/09/11 09:47:23;;;;;;;0.40;0.30;;;21.80;99.90;;;;;;5114676;28;20857;-74
2021/09/11 09:50:08;;;;;;;0.40;0.30;;;21.80;99.90;;;;;;5114220;28;20380;-74
2021/09/11 09:52:35;;;;;;;0.40;0.30;;;21.90;99.90;;;;;;5114733;28;20478;-75
2021/09/11 09:55:06;;;;;;;0.40;0.30;;;22.00;99.90;;;;;;5113239;28;20387;-74
2021/09/11 09:57:32;;;;;;;0.40;0.20;;;21.80;99.90;;;;;;5114307;28;20407;-73
2021/09/11 09:59:59;;;;;;;0.43;0.30;;;22.00;99.90;;;;;;5108153;28;20413;-73
2021/09/11 10:02:25;;;;;;;0.40;0.30;;;21.90;99.90;;;;;;5095876;28;20424;-74
2021/09/11 10:04:51;;;;;;;0.40;0.30;;;22.00;99.90;;;;;;5109480;28;20452;-73
2021/09/11 10:07:19;;;;;;;0.40;0.30;;;22.10;99.90;;;;;;5114234;28;20832;-72
2021/09/11 10:09:48;;;;;;;0.40;0.20;;;22.00;99.90;;;;;;5113753;28;20407;-73
2021/09/11 10:12:30;;;;;;;0.40;0.30;;;22.00;99.90;;;;;;5114686;28;20473;-72
2021/09/11 10:15:26;;;;;;;0.40;0.30;;;22.10;99.90;;;;;;5113580;28;20882;-73
2021/09/11 10:17:53;;;;;;;0.40;0.28;;;22.00;99.90;;;;;;5113505;28;20430;-72
2021/09/11 10:20:19;;;;;;;1.60;0.70;;;22.00;99.90;;;;;;5113772;28;20372;-71
2021/09/11 10:23:17;;;;;;;0.40;0.30;;;22.20;99.90;;;;;;5113584;28;20373;-71
2021/09/11 10:25:45;;;;;;;0.40;0.30;;;22.30;99.90;;;;;;5089469;28;20393;-73
2021/09/11 10:28:21;;;;;;;0.40;0.30;;;22.60;99.90;;;;;;5113540;27;20396;-72
2021/09/11 10:31:05;;;;;;;0.40;0.30;;;22.60;99.90;;;;;;5113137;28;20398;-72
2021/09/11 10:33:51;;;;;;;0.40;0.20;;;22.70;99.90;;;;;;5114300;27;20385;-72
2021/09/11 10:36:48;;;;;;;0.40;0.30;;;22.80;99.90;;;;;;5093497;28;20417;-72
2021/09/11 10:39:19;;;;;;;0.40;0.30;;;23.00;99.90;;;;;;5093089;28;20402;-72
2021/09/11 10:42:06;;;;;;;0.40;0.20;;;23.10;99.90;;;;;;5090710;28;20390;-72
2021/09/11 10:44:32;;;;;;;0.40;0.30;;;23.20;99.90;;;;;;5093501;28;20379;-71
2021/09/11 10:46:58;;;;;;;0.40;0.30;;;23.20;99.90;;;;;;5092738;28;20369;-70
2021/09/11 10:49:37;;;;;;;0.40;0.30;;;22.90;99.90;;;;;;5093178;28;20388;-71
2021/09/11 10:52:07;;;;;;;0.70;0.50;;;22.80;99.90;;;;;;5092436;28;20379;-72
2021/09/11 10:54:38;;;;;;;0.40;0.30;;;22.70;99.90;;;;;;5093350;28;20386;-71
2021/09/11 10:57:18;;;;;;;0.40;0.30;;;23.00;99.90;;;;;;5092584;28;20417;-70
2021/09/11 10:59:48;;;;;;;0.40;0.30;;;23.00;99.90;;;;;;5092576;28;20759;-72
2021/09/11 11:02:21;;;;;;;0.40;0.30;;;23.10;99.90;;;;;;5093017;28;20390;-71
2021/09/11 11:04:47;;;;;;;0.40;0.30;;;23.10;99.90;;;;;;5092356;28;20414;-71
2021/09/11 11:07:18;;;;;;;0.40;0.30;;;23.20;99.90;;;;;;5112364;28;20465;-78
2021/09/11 11:09:52;;;;;;;0.40;0.30;;;23.30;99.90;;;;;;5112886;28;20376;-69
2021/09/11 11:12:44;;;;;;;0.40;0.20;;;23.30;99.90;;;;;;5113272;28;20475;-71
2021/09/11 11:15:27;;;;;;;0.40;0.20;;;23.30;99.90;;;;;;5106316;28;20396;-70
2021/09/11 11:17:54;;;;;;;0.40;0.20;;;23.20;99.90;;;;;;5112153;28;20437;-72
2021/09/11 11:20:28;;;;;;;0.40;0.30;;;23.30;99.90;;;;;;5113202;28;20380;-72
2021/09/11 11:22:58;;;;;;;0.40;0.30;;;23.20;99.90;;;;;;5111877;28;20376;-70
2021/09/11 11:25:35;;;;;;;0.40;0.30;;;23.40;99.90;;;;;;5113065;27;20848;-71
2021/09/11 11:28:01;;;;;;;0.40;0.30;;;23.40;99.90;;;;;;5110046;28;20966;-73
2021/09/11 11:30:27;;;;;;;0.40;0.30;;;23.80;99.90;;;;;;5113096;28;20534;-73
2021/09/11 11:32:53;;;;;;;0.50;0.40;;;24.20;99.90;;;;;;5112398;28;20467;-73
2021/09/11 11:35:20;;;;;;;0.40;0.30;;;24.30;99.30;;;;;;5112689;28;20710;-73
2021/09/11 11:37:46;;;;;;;0.40;0.30;;;24.10;99.60;;;;;;5112574;28;20376;-73
2021/09/11 11:40:15;;;;;;;0.40;0.20;;;24.20;99.90;;;;;;5112542;28;20431;-73
2021/09/11 11:42:43;;;;;;;0.50;0.40;;;24.10;99.90;;;;;;5112334;28;20376;-74
2021/09/11 11:45:11;;;;;;;0.40;0.40;;;24.10;99.90;;;;;;5112490;28;20383;-73
2021/09/11 11:47:46;;;;;;;0.40;0.20;;;24.20;99.90;;;;;;5112550;28;20399;-72
2021/09/11 11:50:32;;;;;;;0.40;0.30;;;24.30;99.30;;;;;;5112901;28;20806;-73
2021/09/11 11:53:12;;;;;;;0.40;0.30;;;24.80;99.70;;;;;;5112279;28;20650;-72
2021/09/11 11:55:41;;;;;;;0.40;0.30;;;24.90;97.40;;;;;;5111347;28;20758;-73
2021/09/11 11:58:11;;;;;;;0.40;0.30;;;24.80;97.70;;;;;;5111627;28;20410;-72
2021/09/11 12:00:52;;;;;;;0.40;0.20;;;25.10;97.20;;;;;;5112243;28;20821;-72
2021/09/11 12:03:36;;;;;;;0.40;0.30;;;25.20;96.50;;;;;;5112760;28;20505;-72
2021/09/11 12:06:09;;;;;;;0.40;0.30;;;25.40;95.50;;;;;;5111462;28;20548;-71
2021/09/11 12:08:36;;;;;;;0.40;0.30;;;25.50;95.30;;;;;;5112179;28;20428;-72
2021/09/11 12:11:03;;;;;;;0.40;0.30;;;25.40;96.40;;;;;;5111345;28;20455;-72
2021/09/11 12:13:29;;;;;;;0.40;0.20;;;24.80;96.90;;;;;;5112396;28;20486;-70
2021/09/11 12:15:56;;;;;;;0.40;0.20;;;24.70;96.30;;;;;;5111404;28;20492;-72
2021/09/11 12:18:22;;;;;;;0.40;0.30;;;25.00;96.30;;;;;;5112068;28;20726;-70
2021/09/11 12:20:53;;;;;;;0.40;0.20;;;24.20;96.80;;;;;;5110421;28;20399;-70
2021/09/11 12:23:28;;;;;;;0.40;0.20;;;23.90;98.00;;;;;;5110808;28;20445;-71
2021/09/11 12:26:02;;;;;;;0.40;0.30;;;23.60;99.50;;;;;;5111197;28;20383;-73
2021/09/11 12:28:37;;;;;;;0.40;0.20;;;23.70;99.90;;;;;;5111981;28;20733;-70
2021/09/11 12:31:05;;;;;;;0.40;0.20;;;23.60;99.90;;;;;;5110725;28;20388;-71
2021/09/11 12:33:51;;;;;;;0.40;0.20;;;23.60;99.90;;;;;;5102711;28;20380;-72
2021/09/11 12:36:41;;;;;;;0.40;0.20;;;23.60;99.90;;;;;;5101641;28;20388;-73
2021/09/11 12:39:15;;;;;;;0.40;0.30;;;23.60;99.90;;;;;;5094494;28;20404;-73
2021/09/11 12:41:49;;;;;;;0.40;0.30;;;23.60;99.70;;;;;;5097232;28;20487;-71
2021/09/11 12:44:14;;;;;;;0.40;0.30;;;23.60;99.30;;;;;;5095654;28;20410;-70
2021/09/11 12:46:51;;;;;;;0.70;0.50;;;23.50;99.40;;;;;;5098281;28;20899;-71
2021/09/11 12:49:17;;;;;;;0.40;0.30;;;23.40;99.90;;;;;;5097724;28;20612;-73
2021/09/11 12:51:45;;;;;;;0.40;0.30;;;23.40;99.90;;;;;;5097392;28;20819;-71